Incline Creek, Nevada Weather observations

Data are for observation ending at time listed.
 Day   Time    Ave.   Ave.  Ave.  Vector   Max.   Stn.    Total    Solar   Ave.   Snow 
  of    of     Air    Rel.  Wind   Wind    Wind   Baro.  Precip.   Rad.    Soil   Depth
Year   Day     Temp.  Hum.  Speed  Dir.    Gust   Pres.                    Temp.       
2017   (PST)    F      %     mph   deg.    mph     mb.     in.     W/m2     F      in. 
---------------------------------------------------------------------------------------  
  16   13:00   37.1    46    1.8   246      5.9   999.0    0.00     540    999.0   83.9
  16   13:10   37.9    47    1.6   243      4.6   999.0    0.01     531    999.0   83.9
  16   13:20   37.8    46    1.9   230      5.0   999.0    0.00     524    999.0   83.9
  16   13:30   37.8    45    2.4   263      8.9   999.0    0.01     516    999.0   83.9
  16   13:40   37.3    45    2.1   271      6.1   999.0    0.00     500    999.0   83.9
  16   13:50   37.5    46    3.0   184      7.8   999.0    0.00     481    999.0   83.9
  16   14:00   37.8    45    3.0   175      7.2   999.0    0.01     463    999.0   83.9
  16   14:10   38.0    44    2.9   188      5.6   999.0    0.00     443    999.0   83.9
  16   14:20   38.4    44    2.8   205      6.0   999.0    0.00     423    999.0   83.9
  16   14:30   38.2    40    2.8   246      5.0   999.0    0.01     403    999.0   83.9
  16   14:40   37.9    50    2.3   171      4.8   999.0    0.00     380    999.0   83.9
  16   14:50   38.6    52    1.5   199      4.6   999.0    0.00     356    999.0   83.9
  16   15:00   38.5    58    0.8   166      3.0   999.0    0.01     329    999.0   83.9
  16   15:10   38.7    56    1.1   216      2.0   999.0    0.00     302    999.0   83.9
  16   15:20   37.3    59    1.8   238      3.4   999.0    0.00     271    999.0   83.9
  16   15:30   35.2    65    1.4   272      2.6   999.0    0.00      70    999.0   83.9
  16   15:40   32.9    75    1.9   298      2.8   999.0    0.01      45    999.0   83.9
  16   15:50   32.3    77    1.4   288      2.8   999.0    0.00      49    999.0   83.9
  16   16:00   31.8    78    1.1   286      2.3   999.0    0.00      20    999.0   83.9
  16   16:10   31.0    75    2.0   308      3.0   999.0    0.00      18    999.0   83.9
  16   16:20   30.6    80    2.4   313      3.9   999.0    0.00      16    999.0   83.9
  16   16:30   30.0    86    1.9   316      2.9   999.0    0.00      14    999.0   83.9
  16   16:40   29.7    87    1.3   317      2.4   999.0    0.00      12    999.0   83.9
  16   16:50   29.2    88    1.3   319      3.4   999.0    0.00       9    999.0   83.9
  16   17:00   28.9    88    2.0   317      2.8   999.0    0.00       6    999.0   83.9
  16   17:10   28.7    90    1.1   358      2.0   999.0    0.00       3    999.0   83.9
  16   17:20   28.0    90    1.2   308      2.8   999.0    0.00       1    999.0   83.9
  16   17:30   27.9    89    2.1   349      3.6   999.0    0.00       0    999.0   83.9
  16   17:40   27.9    88    2.2    16      4.1   999.0    0.00       0    999.0   83.9
  16   17:50   27.6    88    1.3   330      2.5   999.0    0.00       0    999.0   83.9
  16   18:00   27.3    88    1.5     6      2.7   999.0    0.00       0    999.0   83.9
  16   18:10   27.3    86    2.3   325      4.0   999.0    0.00       0    999.0   83.9
  16   18:20   27.1    87    1.6   332      2.6   999.0    0.00       0    999.0   83.9
  16   18:30   26.7    88    0.9   330      2.5   999.0    0.00       0    999.0   83.9
  16   18:40   26.4    88    1.3   356      2.5   999.0    0.00       0    999.0   83.9
  16   18:50   26.6    86    2.2   320      4.5   999.0    0.00       0    999.0   83.9
  16   19:00   26.0    87    1.5     6      2.9   999.0    0.00       0    999.0   83.9
  16   19:10   25.2    88    1.3    16      2.9   999.0    0.00       0    999.0   83.9
  16   19:20   24.9    88    1.6    24      2.6   999.0    0.00       0    999.0   83.9
  16   19:30   24.5    89    1.2    26      2.3   999.0    0.00       0    999.0   83.9
  16   19:40   24.3    88    1.4    11      2.5   999.0    0.00       0    999.0   83.9
  16   19:50   24.5    88    1.7   357      2.9   999.0    0.00       0    999.0   83.9
  16   20:00   24.0    89    1.5    12      3.2   999.0    0.00       0    999.0   83.9
  16   20:10   23.8    89    1.6    15      2.9   999.0    0.00       0    999.0   83.9
  16   20:20   23.4    89    1.4    24      3.1   999.0    0.00       0    999.0   83.9
  16   20:30   23.4    89    1.8    18      3.2   999.0    0.00       0    999.0   83.9
  16   20:40   23.5    88    2.1     1      3.6   999.0    0.00       0    999.0   83.9
  16   20:50   23.1    88    1.6    20      2.5   999.0    0.00       0    999.0   83.9
  16   21:00   22.9    89    2.2   354      3.8   999.0    0.00       0    999.0   83.9
  16   21:10   22.5    90    2.0    12      3.2   999.0    0.00       0    999.0   83.9
  16   21:20   22.4    90    2.3    35      3.8   999.0    0.00       0    999.0   83.9
  16   21:30   22.3    90    1.9   358      3.2   999.0    0.00       0    999.0   83.9
  16   21:40   22.1    90    1.8     9      3.2   999.0    0.00       0    999.0   83.9
  16   21:50   21.9    90    1.7     1      3.0   999.0    0.00       0    999.0   83.9
  16   22:00   21.9    90    2.0   349      3.1   999.0    0.00       0    999.0   83.9
  16   22:10   21.6    90    1.9     2      3.6   999.0    0.00       0    999.0   83.9
  16   22:20   21.8    88    2.1     5      3.9   999.0    0.00       0    999.0   83.9
  16   22:30   21.3    89    1.7    28      2.6   999.0    0.00       0    999.0   83.9
  16   22:40   21.2    90    2.2    15      4.2   999.0    0.00       0    999.0   83.9
  16   22:50   21.5    89    2.7   358      4.6   999.0    0.00       0    999.0   83.9
  16   23:00   21.3    89    2.2    11      4.0   999.0    0.00       0    999.0   83.9
  16   23:10   21.0    89    2.0    20      3.3   999.0    0.00       0    999.0   83.9
  16   23:20   20.6    89    2.3    24      4.3   999.0    0.00       0    999.0   83.9
  16   23:30   20.6    89    1.7    26      3.7   999.0    0.00       0    999.0   83.9
  16   23:40   20.5    89    2.4    17      3.9   999.0    0.00       0    999.0   83.9
  16   23:50   20.4    88    1.9    23      3.2   999.0    0.00       0    999.0   83.9
  17    0:00   20.3    89    3.0    25      4.3   999.0    0.00       0    999.0   83.9
  17    0:10   20.2    89    2.3    28      3.8   999.0    0.00       0    999.0   83.9
  17    0:20   20.0    89    1.9    20      3.2   999.0    0.00       0    999.0   83.9
  17    0:30   20.1    89    2.0    23      4.4   999.0    0.00       0    999.0   83.9
  17    0:40   20.2    88    1.8    22      3.3   999.0    0.00       0    999.0   83.9
  17    0:50   19.8    90    2.0    36      3.4   999.0    0.00       0    999.0   83.9
  17    1:00   19.6    90    1.5    38      2.5   999.0    0.00       0    999.0   83.9
  17    1:10   19.3    90    1.6    35      2.5   999.0    0.00       0    999.0   83.9
  17    1:20   19.5    90    2.4    30      4.1   999.0    0.00       0    999.0   83.9
  17    1:30   19.3    90    2.4    36      4.3   999.0    0.00       0    999.0   83.9
  17    1:40   19.4    90    2.2    25      4.2   999.0    0.00       0    999.0   83.9
  17    1:50   19.3    90    1.9    21      3.2   999.0    0.00       0    999.0   83.9
  17    2:00   19.3    90    2.7    32      4.1   999.0    0.00       0    999.0   83.9
  17    2:10   19.2    90    2.2     6      3.4   999.0    0.00       0    999.0   83.9
  17    2:20   19.6    90    1.9   344      2.7   999.0    0.00       0    999.0   83.9
  17    2:30   19.2    89    2.4    30      3.9   999.0    0.00       0    999.0   83.9
  17    2:40   18.8    91    1.9    29      2.9   999.0    0.00       0    999.0   83.9
  17    2:50   18.9    91    2.1    26      3.3   999.0    0.00       0    999.0   83.9
  17    3:00   18.7    91    1.8    39      2.7   999.0    0.00       0    999.0   83.9
  17    3:10   18.8    92    1.7     3      2.8   999.0    0.00       0    999.0   83.9
  17    3:20   18.5    91    1.9    31      2.8   999.0    0.00       0    999.0   83.9
  17    3:30   18.8    92    2.1    12      3.9   999.0    0.00       0    999.0   83.9
  17    3:40   19.6    92    2.1   347      3.1   999.0    0.00       0    999.0   83.9
  17    3:50   18.7    90    2.0    30      2.9   999.0    0.00       0    999.0   83.9
  17    4:00   18.8    92    1.9   349      3.0   999.0    0.00       0    999.0   83.9
  17    4:10   19.2    91    2.2    20      2.9   999.0    0.00       0    999.0   83.9
  17    4:20   18.6    92    2.1     3      2.9   999.0    0.00       0    999.0   83.9
  17    4:30   19.7    93    2.1   342      3.3   999.0    0.00       0    999.0   83.9
  17    4:40   18.6    90    2.1    41      3.1   999.0    0.00       0    999.0   83.9
  17    4:50   18.4    92    1.7    29      2.8   999.0    0.00       0    999.0   83.9
  17    5:00   18.5    92    1.9    19      3.2   999.0    0.00       0    999.0   83.9
  17    5:10   18.3    92    1.7    31      3.0   999.0    0.00       0    999.0   83.9
  17    5:20   18.9    93    2.2   343      3.1   999.0    0.00       0    999.0   83.9
  17    5:30   20.2    94    3.0   326      4.3   999.0    0.00       0    999.0   83.9
  17    5:40   19.8    90    2.1    26      3.6   999.0    0.00       0    999.0   83.9
  17    5:50   19.0    92    2.0    38      3.4   999.0    0.00       0    999.0   83.9
  17    6:00   19.2    92    2.0    34      3.2   999.0    0.00       0    999.0   83.9
  17    6:10   19.5    92    2.3    28      3.6   999.0    0.00       0    999.0   83.9
  17    6:20   19.3    92    1.8    39      3.4   999.0    0.00       0    999.0   83.9
  17    6:30   19.6    93    1.9    17      3.5   999.0    0.00       0    999.0   83.9
  17    6:40   20.4    92    2.1    11      3.3   999.0    0.00       0    999.0   83.9
  17    6:50   20.3    92    2.3     6      4.3   999.0    0.00       0    999.0   83.9
  17    7:00   20.1    92    1.9    12      2.7   999.0    0.00       0    999.0   83.9
  17    7:10   19.9    92    2.1    26      2.9   999.0    0.00       4    999.0   83.9
  17    7:20   20.2    93    2.1   358      3.6   999.0    0.00       7    999.0   83.9
  17    7:30   20.2    92    1.8   336      3.6   999.0    0.00      10    999.0   83.9
  17    7:40   21.1    92    2.2   334      3.6   999.0    0.00      15    999.0   83.9
  17    7:50   21.6    91    2.0   349      3.1   999.0    0.00      19    999.0   83.9
  17    8:00   21.4    92    2.2   330      3.0   999.0    0.00      22    999.0   83.9
  17    8:10   21.8    90    1.7   345      3.2   999.0    0.00      26    999.0   83.9
  17    8:20   21.4    91    1.8   357      3.0   999.0    0.00      29    999.0   83.9
  17    8:30   21.8    91    2.0   332      2.8   999.0    0.00      34    999.0   83.9
  17    8:40   22.2    89    1.3     1      2.7   999.0    0.00     114    999.0   83.9
  17    8:50   23.6    87    1.9     8      3.0   999.0    0.00     220    999.0   83.9
  17    9:00   25.4    83    1.5    31      2.6   999.0    0.00     242    999.0   83.9
  17    9:10   27.3    89    2.0     3      6.0   999.0    0.00     214    999.0   83.9
  17    9:20   31.7    80    1.7    76      6.0   999.0    0.00     304    999.0   83.9
  17    9:30   32.4    79    1.7   322      3.7   999.0    0.00     320    999.0   83.9
  17    9:40   32.0    79    2.4   115      5.4   999.0    0.00     333    999.0   83.9
  17    9:50   34.2    76    1.2    37      3.0   999.0    0.00     357    999.0   83.9
  17   10:00   35.4    74    2.3   159     11.3   999.0    0.00     376    999.0   83.9
  17   10:10   35.2    76    3.0   158      7.2   999.0    0.01     414    999.0   83.9
  17   10:20   35.8    76    1.7   143      3.2   999.0    0.00     404    999.0   83.9
  17   10:30   37.0    74    1.0   126      2.2   999.0    0.00     412    999.0   83.9
  17   10:40   38.0    73    0.5    70      1.8   999.0    0.00     354    999.0   83.9
  17   10:50   37.3    75    1.8   155      4.9   999.0    0.00     349    999.0   83.9
  17   11:00   36.3    78    3.3   151      5.0   999.0    0.00     250    999.0   83.9
  17   11:10   35.4    80    3.3   163      5.8   999.0    0.00     249    999.0   83.9
  17   11:20   35.1    84    1.9   189      4.6   999.0    0.00     325    999.0   83.9
  17   11:30   34.9    84    3.7   156      6.4   999.0    0.00     306    999.0   83.9
  17   11:40   34.6    87    1.7   176      3.3   999.0    0.00     302    999.0   83.9
  17   11:50   36.3    86    0.5   186      1.8   999.0    0.01     417    999.0   83.9
  17   12:00   37.6    82    1.6   164      4.3   999.0    0.00     364    999.0   83.9
  17   12:10   37.0    84    1.3   187      3.2   999.0    0.01     341    999.0   83.9
  17   12:20   37.7    86    0.6   319      1.4   999.0    0.00     316    999.0   83.9
  17   12:30   38.0    84    2.0   175      3.6   999.0    0.01     400    999.0   83.9
  17   12:40   38.4    82    2.5   180      3.9   999.0    0.00     548    999.0   83.9
  17   12:50   38.2    81    4.4   166      7.1   999.0    0.01     481    999.0   83.9

Return to Incline Creek graphs page.


Western Regional Climate Center,wrcc@dri.edu